Terminal Aerodrome Forecast
Issued by NWS

Home | Current Version | Previous Version | Graphics & Text | Print | Product List | Glossary On
Versions: 1 2 3 4 5 6 7 8 9 10 11 12 13 14 15
000
FTUS43 KDVN 271300 AAA
TAFCID
TAF AMD
KCID 271312Z 2713/2812 30010KT P6SM SKC
     FM271500 31016G22KT P6SM SCT050
     FM271800 31022G32KT P6SM SCT060
     FM280200 32012KT P6SM SKC=

USA.gov is the U.S. government's official web portal to all federal, state and local government web resources and services.